createdAt,value
2018-12-06T00:00:08.070Z,20.30
2018-12-06T00:01:12.516Z,20.57
2018-12-06T00:02:16.816Z,21.70
2018-12-06T00:03:22.776Z,23.62
2018-12-06T00:04:27.100Z,25.35
2018-12-06T00:05:31.482Z,24.45
2018-12-06T00:06:35.860Z,25.68
2018-12-06T00:07:46.608Z,25.35
2018-12-06T00:08:52.845Z,25.55
2018-12-06T00:09:57.952Z,25.15
2018-12-06T00:11:03.365Z,25.35
2018-12-06T00:12:07.728Z,26.12
2018-12-06T00:13:12.235Z,25.15
2018-12-06T00:14:16.503Z,24.92
2018-12-06T00:15:29.255Z,26.70
2018-12-06T00:16:33.625Z,25.50
2018-12-06T00:17:38.284Z,21.33
2018-12-06T00:18:42.915Z,23.57
2018-12-06T00:19:48.175Z,23.12
2018-12-06T00:20:52.566Z,23.75
2018-12-06T00:21:57.567Z,26.50
2018-12-06T00:23:02.136Z,24.37
2018-12-06T00:24:06.474Z,25.62
2018-12-06T00:25:11.694Z,23.87
2018-12-06T00:26:17.638Z,26.33
2018-12-06T00:27:22.157Z,27.75
2018-12-06T00:28:26.675Z,26.75
2018-12-06T00:29:30.972Z,26.77
2018-12-06T00:30:41.175Z,26.68
2018-12-06T00:31:45.535Z,31.45
2018-12-06T00:32:49.953Z,25.65
2018-12-06T00:33:54.451Z,26.07
2018-12-06T00:34:58.883Z,27.50
2018-12-06T00:36:04.360Z,24.27
2018-12-06T00:37:09.900Z,23.40
2018-12-06T00:38:14.340Z,21.65
2018-12-06T00:39:21.189Z,22.45
2018-12-06T00:40:26.003Z,21.02
2018-12-06T00:41:30.346Z,19.57
2018-12-06T00:42:35.719Z,19.45
2018-12-06T00:43:40.700Z,22.73
2018-12-06T00:44:45.832Z,23.92
2018-12-06T00:45:50.211Z,20.60
2018-12-06T00:46:54.601Z,19.67
2018-12-06T00:47:59.917Z,21.62
2018-12-06T00:49:04.459Z,24.52
2018-12-06T00:50:11.684Z,23.98
2018-12-06T00:51:16.675Z,24.92
2018-12-06T00:52:21.351Z,21.33
2018-12-06T00:53:25.661Z,21.20
2018-12-06T00:54:29.964Z,17.37
2018-12-06T00:55:34.760Z,16.30
2018-12-06T00:56:39.084Z,16.57
2018-12-06T00:57:45.066Z,20.27
2018-12-06T00:58:49.395Z,20.05
2018-12-06T00:59:54.730Z,20.30
2018-12-06T01:01:02.779Z,22.75
2018-12-06T01:02:08.627Z,20.85
2018-12-06T01:03:13.026Z,21.10
2018-12-06T01:04:17.875Z,20.55
2018-12-06T01:05:22.794Z,21.52
2018-12-06T01:06:27.135Z,20.00
2018-12-06T01:07:32.197Z,19.77
2018-12-06T01:08:36.683Z,19.77
2018-12-06T01:09:41.398Z,19.70
2018-12-06T01:10:45.715Z,19.15
2018-12-06T01:11:50.036Z,16.73
2018-12-06T01:12:54.393Z,15.28
2018-12-06T01:13:58.877Z,16.65
2018-12-06T01:15:03.442Z,18.30
2018-12-06T01:16:08.216Z,16.02
2018-12-06T01:17:15.536Z,14.75
2018-12-06T01:18:19.902Z,15.30
2018-12-06T01:19:24.877Z,16.32
2018-12-06T01:20:29.193Z,15.08
2018-12-06T01:21:33.557Z,15.75
2018-12-06T01:22:37.884Z,17.10
2018-12-06T01:23:42.234Z,19.05
2018-12-06T01:24:46.551Z,18.75
2018-12-06T01:25:50.871Z,20.37
2018-12-06T01:26:55.369Z,21.10
2018-12-06T01:27:59.713Z,20.30
2018-12-06T01:29:04.100Z,22.45
2018-12-06T01:30:10.594Z,22.27
2018-12-06T01:31:15.003Z,23.77
2018-12-06T01:32:20.053Z,23.02
2018-12-06T01:33:24.542Z,20.70
2018-12-06T01:34:29.620Z,21.80
2018-12-06T01:35:33.988Z,22.48
2018-12-06T01:36:38.491Z,20.17
2018-12-06T01:37:42.851Z,20.80
2018-12-06T01:38:47.255Z,17.55
2018-12-06T01:39:51.645Z,16.67
2018-12-06T01:40:56.109Z,17.45
2018-12-06T01:42:01.222Z,19.65
2018-12-06T01:43:05.935Z,19.40
2018-12-06T01:44:11.596Z,20.30
2018-12-06T01:45:15.964Z,19.55
2018-12-06T01:46:20.682Z,20.77
2018-12-06T01:47:25.051Z,21.42
2018-12-06T01:48:29.555Z,19.42
2018-12-06T01:49:33.851Z,17.90
2018-12-06T01:50:38.185Z,17.45
2018-12-06T01:51:42.546Z,18.23
2018-12-06T01:52:46.888Z,18.80
2018-12-06T01:53:51.210Z,21.80
2018-12-06T01:54:56.235Z,22.02
2018-12-06T01:56:00.864Z,23.38
2018-12-06T01:57:05.227Z,22.73
2018-12-06T01:58:10.228Z,23.25
2018-12-06T01:59:14.552Z,22.82
2018-12-06T02:00:18.915Z,22.82
2018-12-06T02:01:23.252Z,23.40
2018-12-06T02:02:27.868Z,26.50
2018-12-06T02:03:37.851Z,23.22
2018-12-06T02:04:44.651Z,26.57
2018-12-06T02:05:49.767Z,23.38
2018-12-06T02:06:54.310Z,23.42
2018-12-06T02:07:58.652Z,22.55
2018-12-06T02:09:03.263Z,23.60
2018-12-06T02:10:08.211Z,20.68
2018-12-06T02:11:12.628Z,21.90
2018-12-06T02:12:17.186Z,23.50
2018-12-06T02:13:22.160Z,22.90
2018-12-06T02:14:27.083Z,22.17
2018-12-06T02:15:31.463Z,19.80
2018-12-06T02:16:36.620Z,20.70
2018-12-06T02:17:41.303Z,20.65
2018-12-06T02:18:45.755Z,19.70
2018-12-06T02:19:51.084Z,19.98
2018-12-06T02:20:55.385Z,20.10
2018-12-06T02:21:59.918Z,19.75
2018-12-06T02:23:04.290Z,18.82
2018-12-06T02:24:08.674Z,20.02
2018-12-06T02:25:13.421Z,20.37
2018-12-06T02:26:18.609Z,20.50
2018-12-06T02:27:22.944Z,21.70
2018-12-06T02:28:27.439Z,23.80
2018-12-06T02:29:37.307Z,22.25
2018-12-06T02:30:41.942Z,20.80
2018-12-06T02:31:46.415Z,20.75
2018-12-06T02:32:50.755Z,17.60
2018-12-06T02:33:55.282Z,19.95
2018-12-06T02:34:59.731Z,20.37
2018-12-06T02:36:04.146Z,18.23
2018-12-06T02:37:09.187Z,19.95
2018-12-06T02:38:13.510Z,15.00
2018-12-06T02:39:17.828Z,15.05
2018-12-06T02:40:22.135Z,15.60
2018-12-06T02:41:26.505Z,16.57
2018-12-06T02:42:30.809Z,14.23
2018-12-06T02:43:35.201Z,14.80
2018-12-06T02:44:40.673Z,14.47
2018-12-06T02:45:45.007Z,14.85
2018-12-06T02:46:50.951Z,14.83
2018-12-06T02:47:56.225Z,14.47
2018-12-06T02:49:00.597Z,15.85
2018-12-06T02:50:05.237Z,17.40
2018-12-06T02:51:09.567Z,16.17
2018-12-06T02:52:14.029Z,16.17
2018-12-06T02:53:19.846Z,17.48
2018-12-06T02:54:24.245Z,15.60
2018-12-06T02:55:29.054Z,19.12
2018-12-06T02:56:33.463Z,17.02
2018-12-06T02:57:37.820Z,16.42
2018-12-06T02:58:42.299Z,17.50
2018-12-06T02:59:46.750Z,17.75
2018-12-06T03:00:51.992Z,18.62
2018-12-06T03:01:56.597Z,18.52
2018-12-06T03:03:00.945Z,21.20
2018-12-06T03:04:05.294Z,29.02
2018-12-06T03:05:10.152Z,32.30
2018-12-06T03:06:14.520Z,25.72
2018-12-06T03:07:18.863Z,22.25
2018-12-06T03:08:24.004Z,22.45
2018-12-06T03:09:28.380Z,17.67
2018-12-06T03:10:33.400Z,16.40
2018-12-06T03:11:37.854Z,16.00
2018-12-06T03:12:42.212Z,14.30
2018-12-06T03:13:47.479Z,15.13
2018-12-06T03:14:51.862Z,15.70
2018-12-06T03:15:56.219Z,16.27
2018-12-06T03:17:00.554Z,16.65
2018-12-06T03:18:04.931Z,18.15
2018-12-06T03:19:09.303Z,17.23
2018-12-06T03:20:13.677Z,16.17
2018-12-06T03:21:18.011Z,15.90
2018-12-06T03:22:22.426Z,17.10
2018-12-06T03:23:27.072Z,16.30
2018-12-06T03:24:32.231Z,17.15
2018-12-06T03:25:36.876Z,18.20
2018-12-06T03:26:41.242Z,19.95
2018-12-06T03:27:45.974Z,20.55
2018-12-06T03:28:50.341Z,20.20
2018-12-06T03:29:54.672Z,21.00
2018-12-06T03:30:59.036Z,22.15
2018-12-06T03:32:03.510Z,21.12
2018-12-06T03:33:07.872Z,23.10
2018-12-06T03:34:12.525Z,21.90
2018-12-06T03:35:16.916Z,21.33
2018-12-06T03:36:21.256Z,19.42
2018-12-06T03:37:25.867Z,18.40
2018-12-06T03:38:30.504Z,18.37
2018-12-06T03:39:35.091Z,19.15
2018-12-06T03:40:39.631Z,25.20
2018-12-06T03:41:44.212Z,19.65
2018-12-06T03:42:48.770Z,18.85
2018-12-06T03:43:55.411Z,23.62
2018-12-06T03:44:59.844Z,24.02
2018-12-06T03:46:06.293Z,22.60
2018-12-06T03:47:11.233Z,28.92
2018-12-06T03:48:18.722Z,22.32
2018-12-06T03:49:23.291Z,24.47
2018-12-06T03:50:27.652Z,26.15
2018-12-06T03:51:32.109Z,22.17
2018-12-06T03:52:36.732Z,19.40
2018-12-06T03:53:41.276Z,22.35
2018-12-06T03:54:46.731Z,21.40
2018-12-06T03:55:51.373Z,20.57
2018-12-06T03:56:55.879Z,17.60
2018-12-06T03:58:01.353Z,19.32
2018-12-06T03:59:05.732Z,20.65
2018-12-06T04:00:10.359Z,20.30
2018-12-06T04:01:14.838Z,16.50
2018-12-06T04:02:19.864Z,17.12
2018-12-06T04:03:26.340Z,18.25
2018-12-06T04:04:51.335Z,24.15
2018-12-06T04:08:24.205Z,17.20
2018-12-06T04:09:29.404Z,20.30
2018-12-06T04:10:33.708Z,18.60
2018-12-06T04:11:38.503Z,16.80
2018-12-06T04:12:43.445Z,17.23
2018-12-06T04:13:48.346Z,18.92
2018-12-06T04:14:54.400Z,17.90
2018-12-06T04:15:58.808Z,17.42
2018-12-06T04:17:03.351Z,15.68
2018-12-06T04:18:08.272Z,16.55
2018-12-06T04:19:12.633Z,15.88
2018-12-06T04:20:18.223Z,16.70
2018-12-06T04:21:22.535Z,14.33
2018-12-06T04:22:30.560Z,14.33
2018-12-06T04:23:35.340Z,15.75
2018-12-06T04:24:39.651Z,15.00
2018-12-06T04:25:44.033Z,14.93
2018-12-06T04:26:49.300Z,14.63
2018-12-06T04:27:53.684Z,13.18
2018-12-06T04:28:58.401Z,13.83
2018-12-06T04:30:02.709Z,16.42
2018-12-06T04:33:11.396Z,13.70
2018-12-06T04:34:17.880Z,15.55
2018-12-06T04:35:22.748Z,18.62
2018-12-06T04:36:27.403Z,15.55
2018-12-06T04:37:32.130Z,13.45
2018-12-06T04:38:36.424Z,15.13
2018-12-06T04:39:45.868Z,15.90
2018-12-06T04:40:52.799Z,16.73
2018-12-06T04:42:01.801Z,15.43
2018-12-06T04:43:09.274Z,15.88
2018-12-06T04:44:17.584Z,17.20
2018-12-06T04:45:21.892Z,16.87
2018-12-06T04:46:26.239Z,15.03
2018-12-06T04:47:30.895Z,13.22
2018-12-06T04:48:36.604Z,14.80
2018-12-06T04:49:41.404Z,15.38
2018-12-06T04:50:45.734Z,16.48
2018-12-06T04:51:50.068Z,14.25
2018-12-06T04:52:54.368Z,15.90
2018-12-06T04:53:58.780Z,15.65
2018-12-06T04:57:35.982Z,19.47
2018-12-06T04:58:41.848Z,16.62
2018-12-06T04:59:46.224Z,15.50
2018-12-06T05:00:50.873Z,13.80
2018-12-06T05:01:56.240Z,14.87
2018-12-06T05:03:01.096Z,14.73
2018-12-06T05:04:05.505Z,15.13
2018-12-06T05:05:10.176Z,18.35
2018-12-06T05:06:14.660Z,14.95
2018-12-06T05:07:19.278Z,15.08
2018-12-06T05:08:26.559Z,14.35
2018-12-06T05:09:31.141Z,17.55
2018-12-06T05:11:38.714Z,14.43
2018-12-06T05:12:46.620Z,14.43
2018-12-06T05:13:52.397Z,15.65
2018-12-06T05:14:56.901Z,14.93
2018-12-06T05:16:01.240Z,12.68
2018-12-06T05:17:05.969Z,13.50
2018-12-06T05:18:10.300Z,14.50
2018-12-06T05:19:14.936Z,13.08
2018-12-06T05:20:19.558Z,14.10
2018-12-06T05:21:27.875Z,14.00
2018-12-06T05:22:32.568Z,14.43
2018-12-06T05:23:36.964Z,14.13
2018-12-06T05:24:41.533Z,12.70
2018-12-06T05:25:47.427Z,13.55
2018-12-06T05:26:51.774Z,13.20
2018-12-06T05:27:56.149Z,13.50
2018-12-06T05:29:00.589Z,12.15
2018-12-06T05:30:05.521Z,13.15
2018-12-06T05:31:10.788Z,15.30
2018-12-06T05:32:15.260Z,13.88
2018-12-06T05:33:19.593Z,13.85
2018-12-06T05:34:24.212Z,15.70
2018-12-06T05:35:28.557Z,14.58
2018-12-06T05:36:32.897Z,13.72
2018-12-06T05:37:37.272Z,14.47
2018-12-06T05:38:56.272Z,15.65
2018-12-06T05:40:02.925Z,13.00
2018-12-06T05:41:08.872Z,15.35
2018-12-06T05:42:13.561Z,13.58
2018-12-06T05:43:18.390Z,14.20
2018-12-06T05:44:22.904Z,12.75
2018-12-06T05:45:27.248Z,13.60
2018-12-06T05:46:31.710Z,14.10
2018-12-06T05:47:36.037Z,14.78
2018-12-06T05:48:40.460Z,14.70
2018-12-06T05:49:44.878Z,13.80
2018-12-06T05:50:49.224Z,14.65
2018-12-06T05:51:56.247Z,14.58
2018-12-06T05:53:00.686Z,13.60
2018-12-06T05:54:07.320Z,13.38
2018-12-06T05:55:14.544Z,13.80
2018-12-06T05:56:20.073Z,14.58
2018-12-06T05:57:24.717Z,15.40
2018-12-06T05:58:29.036Z,13.05
2018-12-06T05:59:33.451Z,15.32
2018-12-06T06:00:37.805Z,14.75
2018-12-06T06:01:44.990Z,14.33
2018-12-06T06:02:53.228Z,14.10
2018-12-06T06:03:57.876Z,14.83
2018-12-06T06:05:02.390Z,12.88
2018-12-06T06:06:06.943Z,15.23
2018-12-06T06:07:12.569Z,15.98
2018-12-06T06:08:16.969Z,15.08
2018-12-06T06:09:22.694Z,16.30
2018-12-06T06:10:27.052Z,15.93
2018-12-06T06:11:32.341Z,15.03
2018-12-06T06:12:37.426Z,15.28
2018-12-06T06:13:42.551Z,14.70
2018-12-06T06:14:50.091Z,14.20
2018-12-06T06:15:54.614Z,14.60
2018-12-06T06:16:59.780Z,18.77
2018-12-06T06:18:04.351Z,16.90
2018-12-06T06:19:09.183Z,14.43
2018-12-06T06:20:13.739Z,18.70
2018-12-06T06:21:18.145Z,18.15
2018-12-06T06:22:22.634Z,18.02
2018-12-06T06:23:27.193Z,17.00
2018-12-06T06:24:31.803Z,22.17
2018-12-06T06:25:36.348Z,23.30
2018-12-06T06:26:40.849Z,17.02
2018-12-06T06:27:45.785Z,19.48
2018-12-06T06:28:52.823Z,15.72
2018-12-06T06:29:57.179Z,14.20
2018-12-06T06:31:02.391Z,20.10
2018-12-06T06:32:06.960Z,18.48
2018-12-06T06:33:11.301Z,20.17
2018-12-06T06:34:15.668Z,21.23
2018-12-06T06:35:19.981Z,19.17
2018-12-06T06:36:24.338Z,17.75
2018-12-06T06:37:28.705Z,16.87
2018-12-06T06:38:34.477Z,16.42
2018-12-06T06:39:45.873Z,18.15
2018-12-06T06:40:52.526Z,17.90
2018-12-06T06:41:59.141Z,17.57
2018-12-06T06:43:06.429Z,16.45
2018-12-06T06:44:10.755Z,17.60
2018-12-06T06:45:15.276Z,17.82
2018-12-06T06:46:20.418Z,21.45
2018-12-06T06:47:26.324Z,24.10
2018-12-06T06:48:31.812Z,25.48
2018-12-06T06:49:36.854Z,25.48
2018-12-06T06:50:41.447Z,24.80
2018-12-06T06:51:46.902Z,25.72
2018-12-06T06:52:52.131Z,18.92
2018-12-06T06:53:59.284Z,23.90
2018-12-06T06:55:03.711Z,23.87
2018-12-06T06:56:09.082Z,23.92
2018-12-06T06:57:13.847Z,19.82
2018-12-06T06:58:18.349Z,18.95
2018-12-06T06:59:26.455Z,16.30
2018-12-06T07:00:33.260Z,16.75
2018-12-06T07:01:42.110Z,19.02
2018-12-06T07:02:47.258Z,20.70
2018-12-06T07:03:54.460Z,20.27
2018-12-06T07:04:59.768Z,19.65
2018-12-06T07:06:04.382Z,16.70
2018-12-06T07:07:09.204Z,17.75
2018-12-06T07:08:13.543Z,17.77
2018-12-06T07:09:18.286Z,18.92
2018-12-06T07:10:23.424Z,19.85
2018-12-06T07:11:28.244Z,17.70
2018-12-06T07:12:32.567Z,21.40
2018-12-06T07:13:38.341Z,16.17
2018-12-06T07:14:43.192Z,18.75
2018-12-06T07:15:49.240Z,20.00
2018-12-06T07:16:55.806Z,18.20
2018-12-06T07:18:00.763Z,18.23
2018-12-06T07:19:06.302Z,17.90
2018-12-06T07:20:10.617Z,14.45
2018-12-06T07:21:15.493Z,17.02
2018-12-06T07:22:19.911Z,16.90
2018-12-06T07:23:24.985Z,16.20
2018-12-06T07:24:33.340Z,18.05
2018-12-06T07:25:46.087Z,16.87
2018-12-06T07:26:47.249Z,17.70
2018-12-06T07:27:53.895Z,17.60
2018-12-06T07:29:00.695Z,20.25
2018-12-06T07:30:12.101Z,16.65
2018-12-06T07:31:12.978Z,16.95
2018-12-06T07:32:17.539Z,16.60
2018-12-06T07:33:22.792Z,17.70
2018-12-06T07:34:31.652Z,16.12
2018-12-06T07:35:36.012Z,17.50
2018-12-06T07:36:40.496Z,18.52
2018-12-06T07:37:45.660Z,17.75
2018-12-06T07:38:50.990Z,17.60
2018-12-06T07:39:55.862Z,17.55
2018-12-06T07:41:03.157Z,20.02
2018-12-06T07:42:12.748Z,18.17
2018-12-06T07:43:18.592Z,17.20
2018-12-06T07:44:27.641Z,18.73
2018-12-06T07:45:33.157Z,18.52
2018-12-06T07:46:41.474Z,17.45
2018-12-06T07:47:51.641Z,18.48
2018-12-06T07:48:56.976Z,17.95
2018-12-06T07:50:07.188Z,17.75
2018-12-06T07:51:11.816Z,18.30
2018-12-06T07:52:16.290Z,17.35
2018-12-06T07:53:21.190Z,17.35
2018-12-06T07:54:28.107Z,15.80
2018-12-06T07:55:32.462Z,17.87
2018-12-06T07:56:37.968Z,15.50
2018-12-06T07:57:43.892Z,16.55
2018-12-06T07:58:48.695Z,15.85
2018-12-06T07:59:56.554Z,17.23
2018-12-06T08:01:02.631Z,16.55
2018-12-06T08:02:08.250Z,17.45
2018-12-06T08:03:20.115Z,16.73
2018-12-06T08:04:39.187Z,18.70
2018-12-06T08:05:52.641Z,16.40
2018-12-06T08:07:00.505Z,15.70
2018-12-06T08:08:06.616Z,17.55
2018-12-06T08:09:12.430Z,18.87
2018-12-06T08:10:20.376Z,17.55
2018-12-06T08:11:28.653Z,17.70
2018-12-06T08:12:34.854Z,16.60
2018-12-06T08:13:41.776Z,16.42
2018-12-06T08:14:47.247Z,15.98
2018-12-06T08:16:03.399Z,16.62
2018-12-06T08:17:10.887Z,17.42
2018-12-06T08:18:18.170Z,16.93
2018-12-06T08:19:23.095Z,16.10
2018-12-06T08:20:28.152Z,15.85
2018-12-06T08:21:33.776Z,16.30
2018-12-06T08:23:59.258Z,16.17
2018-12-06T08:25:08.369Z,16.25
2018-12-06T08:26:13.574Z,15.23
2018-12-06T08:27:22.193Z,16.35
2018-12-06T08:28:31.888Z,15.40
2018-12-06T08:29:39.144Z,15.88
2018-12-06T08:31:50.592Z,15.55
2018-12-06T08:32:56.272Z,15.30
2018-12-06T08:34:07.117Z,16.10
2018-12-06T08:35:13.828Z,16.00
2018-12-06T08:36:19.515Z,16.52
2018-12-06T08:37:24.856Z,15.58
2018-12-06T08:38:32.273Z,17.70
2018-12-06T08:39:39.665Z,36.83
2018-12-06T08:40:44.643Z,31.90
2018-12-06T08:41:50.503Z,26.27
2018-12-06T08:42:55.152Z,32.75
2018-12-06T08:43:59.833Z,33.78
2018-12-06T08:45:06.353Z,29.23
2018-12-06T08:46:12.345Z,28.23
2018-12-06T08:47:17.233Z,23.22
2018-12-06T08:48:22.399Z,20.50
2018-12-06T08:49:28.539Z,21.52
2018-12-06T08:50:33.230Z,28.15
2018-12-06T08:51:38.292Z,23.15
2018-12-06T08:52:44.082Z,25.77
2018-12-06T08:53:49.339Z,23.55
2018-12-06T08:54:53.717Z,21.00
2018-12-06T08:55:59.420Z,20.45
2018-12-06T08:57:06.770Z,19.60
2018-12-06T08:58:13.626Z,19.95
2018-12-06T08:59:25.262Z,21.30
2018-12-06T09:00:30.128Z,26.23
2018-12-06T09:01:35.823Z,22.27
2018-12-06T09:02:42.697Z,25.45
2018-12-06T09:03:47.801Z,23.05
2018-12-06T09:04:55.604Z,21.35
2018-12-06T09:06:01.568Z,19.98
2018-12-06T09:07:12.382Z,20.12
2018-12-06T09:08:20.548Z,19.37
2018-12-06T09:09:25.583Z,19.02
2018-12-06T09:10:31.892Z,17.50
2018-12-06T09:11:39.575Z,19.15
2018-12-06T09:12:47.892Z,17.30
2018-12-06T09:13:53.459Z,21.52
2018-12-06T09:14:59.991Z,19.10
2018-12-06T09:16:04.495Z,18.40
2018-12-06T09:17:11.097Z,18.75
2018-12-06T09:18:19.974Z,18.77
2018-12-06T09:19:34.663Z,17.55
2018-12-06T09:20:40.671Z,16.67
2018-12-06T09:21:45.081Z,18.95
2018-12-06T09:22:52.399Z,17.35
2018-12-06T09:24:00.590Z,17.87
2018-12-06T09:25:07.928Z,16.57
2018-12-06T09:26:13.336Z,17.60
2018-12-06T09:27:20.564Z,16.30
2018-12-06T09:28:27.404Z,17.35
2018-12-06T09:29:34.650Z,16.80
2018-12-06T09:30:41.386Z,18.00
2018-12-06T09:31:50.611Z,20.77
2018-12-06T09:32:55.574Z,16.42
2018-12-06T09:34:07.567Z,15.00
2018-12-06T09:35:12.215Z,17.85
2018-12-06T09:36:17.270Z,15.18
2018-12-06T09:37:22.269Z,15.65
2018-12-06T09:38:27.854Z,18.00
2018-12-06T09:39:32.815Z,17.77
2018-12-06T09:40:37.583Z,23.02
2018-12-06T09:41:42.790Z,24.27
2018-12-06T09:42:47.670Z,22.82
2018-12-06T09:43:53.593Z,24.65
2018-12-06T09:44:59.059Z,22.13
2018-12-06T09:46:07.035Z,27.13
2018-12-06T09:47:12.261Z,29.35
2018-12-06T09:48:16.920Z,30.60
2018-12-06T09:49:21.487Z,27.73
2018-12-06T09:50:25.981Z,24.32
2018-12-06T09:51:30.796Z,23.47
2018-12-06T09:52:37.944Z,18.92
2018-12-06T09:53:42.768Z,24.45
2018-12-06T09:54:48.264Z,27.95
2018-12-06T09:55:53.247Z,21.42
2018-12-06T09:57:00.286Z,25.68
2018-12-06T09:58:08.342Z,21.87
2018-12-06T09:59:16.554Z,21.77
2018-12-06T10:00:23.536Z,20.82
2018-12-06T10:01:28.795Z,19.25
2018-12-06T10:02:34.780Z,18.27
2018-12-06T10:03:43.501Z,17.05
2018-12-06T10:04:48.251Z,18.07
2018-12-06T10:05:53.246Z,15.45
2018-12-06T10:06:57.857Z,15.72
2018-12-06T10:08:04.351Z,15.48
2018-12-06T10:09:09.538Z,16.45
2018-12-06T10:10:14.027Z,14.18
2018-12-06T10:11:18.540Z,14.80
2018-12-06T10:12:23.840Z,13.20
2018-12-06T10:13:28.889Z,14.00
2018-12-06T10:14:33.299Z,13.62
2018-12-06T10:15:40.050Z,13.98
2018-12-06T10:16:45.750Z,14.68
2018-12-06T10:17:51.415Z,13.98
2018-12-06T10:18:55.885Z,14.15
2018-12-06T10:20:00.868Z,15.38
2018-12-06T10:21:06.574Z,13.70
2018-12-06T10:22:12.044Z,14.73
2018-12-06T10:23:18.477Z,12.53
2018-12-06T10:24:25.567Z,15.65
2018-12-06T10:25:31.055Z,13.80
2018-12-06T10:26:38.150Z,14.35
2018-12-06T10:27:44.398Z,13.95
2018-12-06T10:28:51.168Z,14.75
2018-12-06T10:29:56.840Z,15.85
2018-12-06T10:31:02.564Z,14.93
2018-12-06T10:32:07.105Z,13.43
2018-12-06T10:33:12.064Z,13.70
2018-12-06T10:34:17.667Z,14.55
2018-12-06T10:35:22.590Z,15.18
2018-12-06T10:36:32.106Z,14.50
2018-12-06T10:37:37.008Z,15.08
2018-12-06T10:38:41.391Z,16.10
2018-12-06T10:39:47.695Z,14.65
2018-12-06T10:40:52.120Z,14.95
2018-12-06T10:42:12.595Z,17.65
2018-12-06T10:43:19.341Z,12.90
2018-12-06T10:44:31.643Z,14.45
2018-12-06T10:45:37.857Z,17.25
2018-12-06T10:46:42.386Z,14.85
2018-12-06T10:47:47.411Z,15.95
2018-12-06T10:48:52.716Z,16.67
2018-12-06T10:49:57.723Z,16.97
2018-12-06T10:52:05.981Z,16.50
2018-12-06T10:53:10.949Z,16.95
2018-12-06T10:54:19.389Z,15.60
2018-12-06T10:55:25.297Z,17.67
2018-12-06T10:56:31.800Z,18.05
2018-12-06T10:57:36.243Z,23.12
2018-12-06T10:58:40.826Z,17.92
2018-12-06T10:59:48.716Z,16.60
2018-12-06T11:00:59.307Z,17.15
2018-12-06T11:02:09.926Z,16.52
2018-12-06T11:03:19.633Z,16.40
2018-12-06T11:04:28.346Z,17.45
2018-12-06T11:05:33.683Z,17.25
2018-12-06T11:06:38.145Z,17.27
2018-12-06T11:07:43.111Z,16.67
2018-12-06T11:08:48.436Z,16.20
2018-12-06T11:09:54.328Z,15.25
2018-12-06T11:11:02.181Z,14.98
2018-12-06T11:12:08.813Z,13.58
2018-12-06T11:13:13.371Z,15.05
2018-12-06T11:14:18.888Z,12.73
2018-12-06T11:15:24.425Z,14.07
2018-12-06T11:16:29.548Z,12.45
2018-12-06T11:17:35.532Z,10.70
2018-12-06T11:18:41.913Z,12.65
2018-12-06T11:19:46.500Z,13.22
2018-12-06T11:20:51.623Z,11.00
2018-12-06T11:21:56.206Z,12.25
2018-12-06T11:23:02.561Z,13.43
2018-12-06T11:24:08.268Z,11.65
2018-12-06T11:25:12.752Z,9.63
2018-12-06T11:26:17.300Z,9.80
2018-12-06T11:27:21.700Z,10.35
2018-12-06T11:28:32.854Z,9.60
2018-12-06T11:29:39.442Z,9.30
2018-12-06T11:30:45.260Z,9.63
2018-12-06T11:31:50.355Z,9.28
2018-12-06T11:32:54.783Z,8.40
2018-12-06T11:33:59.327Z,9.63
2018-12-06T11:35:06.237Z,10.30
2018-12-06T11:36:11.683Z,10.05
2018-12-06T11:37:17.423Z,11.08
2018-12-06T11:38:29.605Z,12.00
2018-12-06T11:39:34.424Z,9.88
2018-12-06T11:40:39.971Z,8.63
2018-12-06T11:41:44.745Z,8.00
2018-12-06T11:42:49.570Z,9.55
2018-12-06T11:43:54.208Z,9.28
2018-12-06T11:44:58.893Z,8.10
2018-12-06T11:46:03.520Z,8.50
2018-12-06T11:47:08.090Z,8.80
2018-12-06T11:48:12.798Z,8.70
2018-12-06T11:49:17.713Z,8.55
2018-12-06T11:50:25.162Z,8.95
2018-12-06T11:51:31.307Z,9.10
2018-12-06T11:52:36.072Z,8.53
2018-12-06T11:53:41.127Z,11.38
2018-12-06T11:54:57.092Z,10.80
2018-12-06T11:56:01.716Z,9.70
2018-12-06T11:57:06.558Z,9.05
2018-12-06T11:58:12.272Z,7.08
2018-12-06T11:59:16.888Z,7.80
2018-12-06T12:00:21.390Z,7.30
2018-12-06T12:01:26.378Z,7.75
2018-12-06T12:02:31.098Z,7.78
2018-12-06T12:03:36.661Z,7.78
2018-12-06T12:04:41.308Z,7.97
2018-12-06T12:05:45.830Z,7.60
2018-12-06T12:06:52.055Z,8.55
2018-12-06T12:07:59.603Z,8.03
2018-12-06T12:09:10.334Z,7.78
2018-12-06T12:10:14.972Z,7.90
2018-12-06T12:11:19.717Z,7.00
2018-12-06T12:12:24.141Z,7.42
2018-12-06T12:13:28.859Z,6.65
2018-12-06T12:14:35.779Z,7.85
2018-12-06T12:15:40.609Z,7.40
2018-12-06T12:16:45.510Z,7.90
2018-12-06T12:17:53.741Z,8.48
2018-12-06T12:18:58.798Z,7.30
2018-12-06T12:20:05.503Z,7.55
2018-12-06T12:21:12.192Z,6.47
2018-12-06T12:22:21.716Z,8.48
2018-12-06T12:23:29.662Z,11.25
2018-12-06T12:24:35.145Z,6.60
2018-12-06T12:25:42.858Z,7.12
2018-12-06T12:26:48.314Z,7.35
2018-12-06T12:27:53.849Z,6.97
2018-12-06T12:28:58.536Z,8.05
2018-12-06T12:30:05.396Z,7.80
2018-12-06T12:31:10.776Z,8.10
2018-12-06T12:32:19.355Z,9.25
2018-12-06T12:33:26.009Z,6.70
2018-12-06T12:34:32.628Z,6.50
2018-12-06T12:35:43.315Z,7.35
2018-12-06T12:36:48.350Z,8.20
2018-12-06T12:37:56.532Z,7.80
2018-12-06T12:39:02.405Z,6.62
2018-12-06T12:40:12.271Z,7.55
2018-12-06T12:41:18.305Z,6.75
2018-12-06T12:42:23.866Z,7.50
2018-12-06T12:43:33.266Z,6.75
2018-12-06T12:44:37.940Z,7.47
2018-12-06T12:45:44.676Z,8.38
2018-12-06T12:46:52.863Z,9.05
2018-12-06T12:47:57.977Z,8.50
2018-12-06T12:49:04.424Z,7.37
2018-12-06T12:50:11.490Z,7.00
2018-12-06T12:51:16.567Z,8.13
2018-12-06T12:52:23.661Z,7.47
2018-12-06T12:53:31.257Z,7.03
2018-12-06T12:54:35.972Z,6.97
2018-12-06T12:55:41.422Z,6.40
2018-12-06T12:56:54.545Z,7.50
2018-12-06T12:58:02.481Z,8.20
2018-12-06T12:59:11.336Z,6.90
2018-12-06T13:00:17.265Z,7.42
2018-12-06T13:01:25.271Z,6.83
2018-12-06T13:02:36.059Z,6.67
2018-12-06T13:03:42.922Z,6.67
2018-12-06T13:04:49.389Z,6.67
2018-12-06T13:06:00.278Z,6.47
2018-12-06T13:07:18.311Z,8.58
2018-12-06T13:08:26.356Z,7.90
2018-12-06T13:09:36.027Z,7.08
2018-12-06T13:10:41.826Z,9.00
2018-12-06T13:11:47.799Z,6.45
2018-12-06T13:12:53.270Z,7.47
2018-12-06T13:14:01.657Z,9.05
2018-12-06T13:15:07.402Z,8.15
2018-12-06T13:16:12.774Z,5.87
2018-12-06T13:17:19.231Z,6.90
2018-12-06T13:18:25.409Z,7.35
2018-12-06T13:19:29.827Z,7.10
2018-12-06T13:20:34.820Z,6.78
2018-12-06T13:21:43.058Z,6.42
2018-12-06T13:22:49.195Z,7.25
2018-12-06T13:24:01.337Z,6.40
2018-12-06T13:25:07.898Z,7.08
2018-12-06T13:26:16.564Z,7.12
2018-12-06T13:27:23.438Z,8.00
2018-12-06T13:28:31.780Z,7.05
2018-12-06T13:29:38.063Z,8.18
2018-12-06T13:30:44.172Z,8.75
2018-12-06T13:31:52.617Z,7.05
2018-12-06T13:33:01.866Z,7.37
2018-12-06T13:34:07.280Z,8.70
2018-12-06T13:35:12.706Z,6.00
2018-12-06T13:36:19.082Z,7.22
2018-12-06T13:37:26.367Z,6.20
2018-12-06T13:38:40.916Z,6.50
2018-12-06T13:39:48.651Z,8.20
2018-12-06T13:40:56.549Z,6.33
2018-12-06T13:42:03.412Z,7.90
2018-12-06T13:43:08.280Z,7.20
2018-12-06T13:44:14.507Z,7.70
2018-12-06T13:45:20.270Z,7.47
2018-12-06T13:46:25.295Z,6.70
2018-12-06T13:47:31.863Z,7.00
2018-12-06T13:48:37.313Z,9.35
2018-12-06T13:49:43.428Z,7.50
2018-12-06T13:50:50.380Z,6.60
2018-12-06T13:52:02.251Z,8.65
2018-12-06T13:53:07.253Z,7.00
2018-12-06T13:54:13.266Z,7.78
2018-12-06T13:55:20.439Z,10.45
2018-12-06T13:56:28.741Z,7.50
2018-12-06T13:57:35.348Z,8.50
2018-12-06T13:58:45.975Z,8.20
2018-12-06T13:59:50.834Z,8.60
2018-12-06T14:01:54.402Z,8.08
2018-12-06T14:02:59.311Z,8.25
2018-12-06T14:04:05.281Z,7.90
2018-12-06T14:05:11.402Z,9.10
2018-12-06T14:06:16.458Z,8.68
2018-12-06T14:07:25.926Z,8.28
2018-12-06T14:08:36.374Z,9.28
2018-12-06T14:09:43.281Z,10.98
2018-12-06T14:10:48.444Z,11.60
2018-12-06T14:11:54.234Z,21.45
2018-12-06T14:14:17.748Z,19.80
2018-12-06T14:15:25.197Z,17.85
2018-12-06T14:16:30.896Z,10.18
2018-12-06T14:17:38.197Z,13.50
2018-12-06T14:18:46.730Z,12.40
2018-12-06T14:19:53.748Z,7.85
2018-12-06T14:20:59.280Z,8.38
2018-12-06T14:22:06.296Z,7.65
2018-12-06T14:23:12.544Z,8.18
2018-12-06T14:24:17.783Z,9.88
2018-12-06T14:25:26.493Z,7.90
2018-12-06T14:26:34.150Z,7.10